sensor_id;sensor_type;location;lat;lon;timestamp;P1;durP1;ratioP1;P2;durP2;ratioP2
22849;SDS011;11591;44.792;10.358;2023-04-03T00:00:49;5.13;;;1.83;;
22849;SDS011;11591;44.792;10.358;2023-04-03T00:03:16;2.72;;;1.70;;
22849;SDS011;11591;44.792;10.358;2023-04-03T00:05:42;2.92;;;1.70;;
22849;SDS011;11591;44.792;10.358;2023-04-03T00:08:08;3.53;;;1.90;;
22849;SDS011;11591;44.792;10.358;2023-04-03T00:10:35;2.55;;;1.77;;
22849;SDS011;11591;44.792;10.358;2023-04-03T00:13:02;4.03;;;1.75;;
22849;SDS011;11591;44.792;10.358;2023-04-03T00:15:29;2.05;;;1.50;;
22849;SDS011;11591;44.792;10.358;2023-04-03T00:17:55;3.25;;;1.60;;
22849;SDS011;11591;44.792;10.358;2023-04-03T00:20:21;2.03;;;1.48;;
22849;SDS011;11591;44.792;10.358;2023-04-03T00:22:46;3.55;;;1.65;;
22849;SDS011;11591;44.792;10.358;2023-04-03T00:25:12;3.92;;;1.85;;
22849;SDS011;11591;44.792;10.358;2023-04-03T00:27:38;4.10;;;1.73;;
22849;SDS011;11591;44.792;10.358;2023-04-03T00:30:05;3.00;;;1.90;;
22849;SDS011;11591;44.792;10.358;2023-04-03T00:32:33;3.47;;;1.92;;
22849;SDS011;11591;44.792;10.358;2023-04-03T00:34:59;2.58;;;1.70;;
22849;SDS011;11591;44.792;10.358;2023-04-03T00:37:25;3.10;;;1.95;;
22849;SDS011;11591;44.792;10.358;2023-04-03T00:39:51;3.05;;;1.80;;
22849;SDS011;11591;44.792;10.358;2023-04-03T00:42:17;5.20;;;2.08;;
22849;SDS011;11591;44.792;10.358;2023-04-03T00:47:12;4.07;;;2.00;;
22849;SDS011;11591;44.792;10.358;2023-04-03T00:49:41;3.35;;;1.90;;
22849;SDS011;11591;44.792;10.358;2023-04-03T00:52:08;3.35;;;1.90;;
22849;SDS011;11591;44.792;10.358;2023-04-03T00:54:38;3.25;;;1.98;;
22849;SDS011;11591;44.792;10.358;2023-04-03T00:57:07;4.07;;;2.03;;
22849;SDS011;11591;44.792;10.358;2023-04-03T00:59:38;2.40;;;1.75;;
22849;SDS011;11591;44.792;10.358;2023-04-03T01:02:09;3.63;;;1.85;;
22849;SDS011;11591;44.792;10.358;2023-04-03T01:04:37;2.97;;;1.85;;
22849;SDS011;11591;44.792;10.358;2023-04-03T01:07:10;3.72;;;1.80;;
22849;SDS011;11591;44.792;10.358;2023-04-03T01:09:39;6.35;;;2.42;;
22849;SDS011;11591;44.792;10.358;2023-04-03T01:12:22;3.42;;;1.98;;
22849;SDS011;11591;44.792;10.358;2023-04-03T01:14:51;3.20;;;2.10;;
22849;SDS011;11591;44.792;10.358;2023-04-03T01:17:32;3.53;;;1.92;;
22849;SDS011;11591;44.792;10.358;2023-04-03T01:28:20;4.45;;;1.90;;
22849;SDS011;11591;44.792;10.358;2023-04-03T01:33:47;5.53;;;2.00;;
22849;SDS011;11591;44.792;10.358;2023-04-03T01:36:16;3.20;;;2.10;;
22849;SDS011;11591;44.792;10.358;2023-04-03T01:38:47;3.97;;;2.10;;
22849;SDS011;11591;44.792;10.358;2023-04-03T01:41:14;3.85;;;2.05;;
22849;SDS011;11591;44.792;10.358;2023-04-03T01:43:42;2.95;;;1.92;;
22849;SDS011;11591;44.792;10.358;2023-04-03T01:46:08;4.07;;;2.13;;
22849;SDS011;11591;44.792;10.358;2023-04-03T01:48:34;3.70;;;2.20;;
22849;SDS011;11591;44.792;10.358;2023-04-03T01:51:00;4.20;;;2.30;;
22849;SDS011;11591;44.792;10.358;2023-04-03T01:53:26;4.85;;;2.00;;
22849;SDS011;11591;44.792;10.358;2023-04-03T01:55:52;3.58;;;2.00;;
22849;SDS011;11591;44.792;10.358;2023-04-03T01:58:18;3.85;;;2.30;;
22849;SDS011;11591;44.792;10.358;2023-04-03T02:00:45;4.72;;;2.25;;
22849;SDS011;11591;44.792;10.358;2023-04-03T02:03:11;3.38;;;2.10;;
22849;SDS011;11591;44.792;10.358;2023-04-03T02:05:37;5.00;;;2.22;;
22849;SDS011;11591;44.792;10.358;2023-04-03T02:08:04;3.58;;;2.03;;
22849;SDS011;11591;44.792;10.358;2023-04-03T02:10:31;4.07;;;2.28;;
22849;SDS011;11591;44.792;10.358;2023-04-03T02:12:56;5.38;;;2.20;;
22849;SDS011;11591;44.792;10.358;2023-04-03T02:15:24;6.47;;;2.22;;
22849;SDS011;11591;44.792;10.358;2023-04-03T02:17:52;6.80;;;2.40;;
22849;SDS011;11591;44.792;10.358;2023-04-03T02:20:19;4.45;;;2.28;;
22849;SDS011;11591;44.792;10.358;2023-04-03T02:22:45;6.53;;;2.50;;
22849;SDS011;11591;44.792;10.358;2023-04-03T02:25:11;4.38;;;2.50;;
22849;SDS011;11591;44.792;10.358;2023-04-03T02:27:38;5.05;;;2.60;;
22849;SDS011;11591;44.792;10.358;2023-04-03T02:30:04;4.95;;;2.55;;
22849;SDS011;11591;44.792;10.358;2023-04-03T02:32:30;4.72;;;2.92;;
22849;SDS011;11591;44.792;10.358;2023-04-03T02:34:57;4.13;;;2.40;;
22849;SDS011;11591;44.792;10.358;2023-04-03T02:37:23;4.70;;;2.50;;
22849;SDS011;11591;44.792;10.358;2023-04-03T02:39:51;5.22;;;2.63;;
22849;SDS011;11591;44.792;10.358;2023-04-03T02:42:17;5.63;;;2.50;;
22849;SDS011;11591;44.792;10.358;2023-04-03T02:44:43;4.60;;;2.70;;
22849;SDS011;11591;44.792;10.358;2023-04-03T02:47:09;5.93;;;2.78;;
22849;SDS011;11591;44.792;10.358;2023-04-03T02:49:35;4.18;;;2.60;;
22849;SDS011;11591;44.792;10.358;2023-04-03T02:52:01;4.15;;;2.55;;
22849;SDS011;11591;44.792;10.358;2023-04-03T02:54:27;6.97;;;2.33;;
22849;SDS011;11591;44.792;10.358;2023-04-03T02:56:58;5.07;;;2.60;;
22849;SDS011;11591;44.792;10.358;2023-04-03T02:59:24;5.97;;;2.20;;
22849;SDS011;11591;44.792;10.358;2023-04-03T03:01:50;4.30;;;2.50;;
22849;SDS011;11591;44.792;10.358;2023-04-03T03:04:16;4.68;;;2.58;;
22849;SDS011;11591;44.792;10.358;2023-04-03T03:06:42;4.63;;;2.55;;
22849;SDS011;11591;44.792;10.358;2023-04-03T03:09:07;3.88;;;2.65;;
22849;SDS011;11591;44.792;10.358;2023-04-03T03:11:33;3.55;;;2.42;;
22849;SDS011;11591;44.792;10.358;2023-04-03T03:14:01;4.35;;;2.42;;
22849;SDS011;11591;44.792;10.358;2023-04-03T03:16:27;4.07;;;2.35;;
22849;SDS011;11591;44.792;10.358;2023-04-03T03:18:53;2.58;;;2.00;;
22849;SDS011;11591;44.792;10.358;2023-04-03T03:21:18;5.35;;;2.22;;
22849;SDS011;11591;44.792;10.358;2023-04-03T03:23:44;7.07;;;2.67;;
22849;SDS011;11591;44.792;10.358;2023-04-03T03:26:10;4.75;;;3.17;;
22849;SDS011;11591;44.792;10.358;2023-04-03T03:28:37;5.25;;;3.65;;
22849;SDS011;11591;44.792;10.358;2023-04-03T03:31:05;4.15;;;3.00;;
22849;SDS011;11591;44.792;10.358;2023-04-03T03:33:32;4.50;;;2.88;;
22849;SDS011;11591;44.792;10.358;2023-04-03T03:35:59;5.10;;;2.90;;
22849;SDS011;11591;44.792;10.358;2023-04-03T03:38:25;9.23;;;2.90;;
22849;SDS011;11591;44.792;10.358;2023-04-03T03:40:52;7.93;;;3.10;;
22849;SDS011;11591;44.792;10.358;2023-04-03T03:43:20;5.13;;;2.63;;
22849;SDS011;11591;44.792;10.358;2023-04-03T03:45:51;5.82;;;2.40;;
22849;SDS011;11591;44.792;10.358;2023-04-03T03:48:18;3.50;;;2.20;;
22849;SDS011;11591;44.792;10.358;2023-04-03T03:50:44;3.95;;;1.98;;
22849;SDS011;11591;44.792;10.358;2023-04-03T03:53:11;4.32;;;2.55;;
22849;SDS011;11591;44.792;10.358;2023-04-03T03:55:37;5.85;;;3.10;;
22849;SDS011;11591;44.792;10.358;2023-04-03T03:58:03;5.65;;;2.50;;
22849;SDS011;11591;44.792;10.358;2023-04-03T04:00:30;4.45;;;2.45;;
22849;SDS011;11591;44.792;10.358;2023-04-03T04:02:56;6.45;;;2.40;;
22849;SDS011;11591;44.792;10.358;2023-04-03T04:05:23;5.97;;;2.60;;
22849;SDS011;11591;44.792;10.358;2023-04-03T04:07:51;5.75;;;2.47;;
22849;SDS011;11591;44.792;10.358;2023-04-03T04:10:17;5.05;;;2.53;;
22849;SDS011;11591;44.792;10.358;2023-04-03T04:12:44;6.03;;;2.53;;
22849;SDS011;11591;44.792;10.358;2023-04-03T04:15:11;4.40;;;2.67;;
22849;SDS011;11591;44.792;10.358;2023-04-03T04:17:37;5.53;;;3.03;;
22849;SDS011;11591;44.792;10.358;2023-04-03T04:20:06;4.20;;;2.70;;
22849;SDS011;11591;44.792;10.358;2023-04-03T04:22:32;4.35;;;2.60;;
22849;SDS011;11591;44.792;10.358;2023-04-03T04:24:58;4.32;;;2.28;;
22849;SDS011;11591;44.792;10.358;2023-04-03T04:27:25;5.90;;;2.50;;
22849;SDS011;11591;44.792;10.358;2023-04-03T04:29:51;3.70;;;2.28;;
22849;SDS011;11591;44.792;10.358;2023-04-03T04:32:17;4.13;;;2.70;;
22849;SDS011;11591;44.792;10.358;2023-04-03T04:34:44;6.25;;;2.90;;
22849;SDS011;11591;44.792;10.358;2023-04-03T04:37:10;4.00;;;2.40;;
22849;SDS011;11591;44.792;10.358;2023-04-03T04:39:36;4.68;;;2.67;;
22849;SDS011;11591;44.792;10.358;2023-04-03T04:42:02;4.50;;;2.67;;
22849;SDS011;11591;44.792;10.358;2023-04-03T04:44:30;5.05;;;3.17;;
22849;SDS011;11591;44.792;10.358;2023-04-03T04:46:56;5.82;;;2.55;;
22849;SDS011;11591;44.792;10.358;2023-04-03T04:49:22;4.15;;;2.88;;
22849;SDS011;11591;44.792;10.358;2023-04-03T04:51:48;6.53;;;3.10;;
22849;SDS011;11591;44.792;10.358;2023-04-03T04:54:16;6.45;;;3.30;;
22849;SDS011;11591;44.792;10.358;2023-04-03T04:56:45;4.72;;;3.05;;
22849;SDS011;11591;44.792;10.358;2023-04-03T04:59:12;6.20;;;3.15;;
22849;SDS011;11591;44.792;10.358;2023-04-03T05:01:38;6.45;;;3.35;;
22849;SDS011;11591;44.792;10.358;2023-04-03T05:04:08;8.23;;;3.05;;
22849;SDS011;11591;44.792;10.358;2023-04-03T05:06:35;5.70;;;3.38;;
22849;SDS011;11591;44.792;10.358;2023-04-03T05:09:06;7.43;;;3.15;;
22849;SDS011;11591;44.792;10.358;2023-04-03T05:11:34;5.72;;;3.20;;
22849;SDS011;11591;44.792;10.358;2023-04-03T05:14:00;7.03;;;3.42;;
22849;SDS011;11591;44.792;10.358;2023-04-03T05:16:28;7.85;;;3.20;;
22849;SDS011;11591;44.792;10.358;2023-04-03T05:18:54;7.07;;;3.58;;
22849;SDS011;11591;44.792;10.358;2023-04-03T05:21:38;10.60;;;3.50;;
22849;SDS011;11591;44.792;10.358;2023-04-03T05:24:22;6.53;;;3.38;;
22849;SDS011;11591;44.792;10.358;2023-04-03T05:26:48;7.85;;;3.80;;
22849;SDS011;11591;44.792;10.358;2023-04-03T05:29:33;6.15;;;3.35;;
22849;SDS011;11591;44.792;10.358;2023-04-03T05:32:17;6.57;;;3.78;;
22849;SDS011;11591;44.792;10.358;2023-04-03T05:34:46;5.22;;;3.38;;
22849;SDS011;11591;44.792;10.358;2023-04-03T05:37:12;8.15;;;4.00;;
22849;SDS011;11591;44.792;10.358;2023-04-03T05:39:39;13.68;;;3.95;;
22849;SDS011;11591;44.792;10.358;2023-04-03T05:42:07;9.88;;;3.78;;
22849;SDS011;11591;44.792;10.358;2023-04-03T05:44:33;11.75;;;3.83;;
22849;SDS011;11591;44.792;10.358;2023-04-03T05:47:00;8.25;;;3.97;;
22849;SDS011;11591;44.792;10.358;2023-04-03T05:49:27;10.50;;;3.67;;
22849;SDS011;11591;44.792;10.358;2023-04-03T05:51:53;6.95;;;3.78;;
22849;SDS011;11591;44.792;10.358;2023-04-03T05:54:26;11.48;;;4.45;;
22849;SDS011;11591;44.792;10.358;2023-04-03T05:57:00;12.63;;;4.53;;
22849;SDS011;11591;44.792;10.358;2023-04-03T05:59:27;8.98;;;4.93;;
22849;SDS011;11591;44.792;10.358;2023-04-03T06:01:55;8.48;;;4.30;;
22849;SDS011;11591;44.792;10.358;2023-04-03T06:04:21;9.75;;;4.32;;
22849;SDS011;11591;44.792;10.358;2023-04-03T06:06:51;9.73;;;4.60;;
22849;SDS011;11591;44.792;10.358;2023-04-03T06:09:19;12.20;;;5.15;;
22849;SDS011;11591;44.792;10.358;2023-04-03T06:11:46;7.80;;;4.50;;
22849;SDS011;11591;44.792;10.358;2023-04-03T06:14:13;9.88;;;4.45;;
22849;SDS011;11591;44.792;10.358;2023-04-03T06:16:39;9.63;;;5.13;;
22849;SDS011;11591;44.792;10.358;2023-04-03T06:19:09;11.00;;;5.47;;
22849;SDS011;11591;44.792;10.358;2023-04-03T06:21:39;10.05;;;5.70;;
22849;SDS011;11591;44.792;10.358;2023-04-03T06:24:05;12.05;;;5.43;;
22849;SDS011;11591;44.792;10.358;2023-04-03T06:26:32;11.93;;;5.40;;
22849;SDS011;11591;44.792;10.358;2023-04-03T06:28:58;10.25;;;5.95;;
22849;SDS011;11591;44.792;10.358;2023-04-03T06:31:25;8.52;;;5.18;;
22849;SDS011;11591;44.792;10.358;2023-04-03T06:33:51;15.00;;;6.03;;
22849;SDS011;11591;44.792;10.358;2023-04-03T06:36:18;8.32;;;5.40;;
22849;SDS011;11591;44.792;10.358;2023-04-03T06:38:45;8.57;;;5.38;;
22849;SDS011;11591;44.792;10.358;2023-04-03T06:41:12;14.20;;;5.95;;
22849;SDS011;11591;44.792;10.358;2023-04-03T06:43:38;9.63;;;6.15;;
22849;SDS011;11591;44.792;10.358;2023-04-03T06:46:03;9.73;;;5.93;;
22849;SDS011;11591;44.792;10.358;2023-04-03T06:48:30;9.98;;;6.03;;
22849;SDS011;11591;44.792;10.358;2023-04-03T06:50:56;11.63;;;7.03;;
22849;SDS011;11591;44.792;10.358;2023-04-03T06:53:22;10.95;;;7.20;;
22849;SDS011;11591;44.792;10.358;2023-04-03T06:55:48;13.50;;;6.82;;
22849;SDS011;11591;44.792;10.358;2023-04-03T06:58:14;12.82;;;7.10;;
22849;SDS011;11591;44.792;10.358;2023-04-03T07:00:42;12.95;;;7.05;;
22849;SDS011;11591;44.792;10.358;2023-04-03T07:03:08;14.20;;;7.65;;
22849;SDS011;11591;44.792;10.358;2023-04-03T07:05:33;14.88;;;8.55;;
22849;SDS011;11591;44.792;10.358;2023-04-03T07:07:59;15.65;;;8.85;;
22849;SDS011;11591;44.792;10.358;2023-04-03T07:10:25;17.50;;;8.85;;
22849;SDS011;11591;44.792;10.358;2023-04-03T07:12:51;14.00;;;8.30;;
22849;SDS011;11591;44.792;10.358;2023-04-03T07:15:17;18.55;;;8.48;;
22849;SDS011;11591;44.792;10.358;2023-04-03T07:17:43;15.05;;;8.55;;
22849;SDS011;11591;44.792;10.358;2023-04-03T07:20:09;16.55;;;9.15;;
22849;SDS011;11591;44.792;10.358;2023-04-03T07:22:36;16.33;;;8.90;;
22849;SDS011;11591;44.792;10.358;2023-04-03T07:25:02;16.52;;;8.95;;
22849;SDS011;11591;44.792;10.358;2023-04-03T07:27:29;17.08;;;9.80;;
22849;SDS011;11591;44.792;10.358;2023-04-03T07:29:55;17.60;;;11.05;;
22849;SDS011;11591;44.792;10.358;2023-04-03T07:32:21;17.75;;;10.35;;
22849;SDS011;11591;44.792;10.358;2023-04-03T07:34:47;19.70;;;10.38;;
22849;SDS011;11591;44.792;10.358;2023-04-03T07:37:13;17.30;;;10.43;;
22849;SDS011;11591;44.792;10.358;2023-04-03T07:39:39;22.65;;;12.10;;
22849;SDS011;11591;44.792;10.358;2023-04-03T07:42:10;21.90;;;11.80;;
22849;SDS011;11591;44.792;10.358;2023-04-03T07:44:37;18.77;;;10.70;;
22849;SDS011;11591;44.792;10.358;2023-04-03T07:47:03;21.13;;;11.13;;
22849;SDS011;11591;44.792;10.358;2023-04-03T07:49:29;18.38;;;10.02;;
22849;SDS011;11591;44.792;10.358;2023-04-03T07:51:55;14.73;;;9.50;;
22849;SDS011;11591;44.792;10.358;2023-04-03T07:54:21;15.40;;;8.57;;
22849;SDS011;11591;44.792;10.358;2023-04-03T07:56:46;16.63;;;9.55;;
22849;SDS011;11591;44.792;10.358;2023-04-03T07:59:13;16.02;;;9.48;;
22849;SDS011;11591;44.792;10.358;2023-04-03T08:01:40;17.88;;;8.93;;
22849;SDS011;11591;44.792;10.358;2023-04-03T08:04:06;15.15;;;9.52;;
22849;SDS011;11591;44.792;10.358;2023-04-03T08:06:32;13.43;;;8.40;;
22849;SDS011;11591;44.792;10.358;2023-04-03T08:09:01;13.90;;;9.38;;
22849;SDS011;11591;44.792;10.358;2023-04-03T08:11:29;15.00;;;9.13;;
22849;SDS011;11591;44.792;10.358;2023-04-03T08:13:56;18.38;;;9.30;;
22849;SDS011;11591;44.792;10.358;2023-04-03T08:16:22;19.67;;;9.18;;
22849;SDS011;11591;44.792;10.358;2023-04-03T08:18:52;19.67;;;9.43;;
22849;SDS011;11591;44.792;10.358;2023-04-03T08:21:18;16.20;;;9.30;;
22849;SDS011;11591;44.792;10.358;2023-04-03T08:23:44;18.60;;;9.75;;
22849;SDS011;11591;44.792;10.358;2023-04-03T08:26:14;17.45;;;9.65;;
22849;SDS011;11591;44.792;10.358;2023-04-03T08:28:41;14.02;;;9.02;;
22849;SDS011;11591;44.792;10.358;2023-04-03T08:31:09;16.48;;;9.57;;
22849;SDS011;11591;44.792;10.358;2023-04-03T08:33:37;18.77;;;9.38;;
22849;SDS011;11591;44.792;10.358;2023-04-03T08:36:04;15.65;;;9.05;;
22849;SDS011;11591;44.792;10.358;2023-04-03T08:38:31;18.40;;;10.25;;
22849;SDS011;11591;44.792;10.358;2023-04-03T08:41:05;15.60;;;9.68;;
22849;SDS011;11591;44.792;10.358;2023-04-03T08:52:02;14.60;;;9.00;;
22849;SDS011;11591;44.792;10.358;2023-04-03T08:54:35;17.27;;;8.65;;
22849;SDS011;11591;44.792;10.358;2023-04-03T08:57:06;16.60;;;9.25;;
22849;SDS011;11591;44.792;10.358;2023-04-03T08:59:36;19.85;;;9.23;;
22849;SDS011;11591;44.792;10.358;2023-04-03T09:02:04;20.63;;;8.77;;
22849;SDS011;11591;44.792;10.358;2023-04-03T09:04:54;16.92;;;8.60;;
22849;SDS011;11591;44.792;10.358;2023-04-03T09:07:23;15.68;;;8.98;;
22849;SDS011;11591;44.792;10.358;2023-04-03T09:09:59;14.05;;;8.85;;
22849;SDS011;11591;44.792;10.358;2023-04-03T09:12:32;16.15;;;9.20;;
22849;SDS011;11591;44.792;10.358;2023-04-03T09:15:23;17.85;;;9.43;;
22849;SDS011;11591;44.792;10.358;2023-04-03T09:18:05;13.82;;;9.15;;
22849;SDS011;11591;44.792;10.358;2023-04-03T09:23:32;13.75;;;9.13;;
22849;SDS011;11591;44.792;10.358;2023-04-03T09:26:19;16.85;;;9.48;;
22849;SDS011;11591;44.792;10.358;2023-04-03T09:29:02;15.18;;;8.60;;
22849;SDS011;11591;44.792;10.358;2023-04-03T09:31:38;17.67;;;9.60;;
22849;SDS011;11591;44.792;10.358;2023-04-03T09:34:20;15.13;;;9.20;;
22849;SDS011;11591;44.792;10.358;2023-04-03T09:36:56;16.42;;;8.48;;
22849;SDS011;11591;44.792;10.358;2023-04-03T09:39:25;15.07;;;8.35;;
22849;SDS011;11591;44.792;10.358;2023-04-03T09:41:58;11.27;;;7.57;;
22849;SDS011;11591;44.792;10.358;2023-04-03T09:44:40;11.57;;;6.70;;
22849;SDS011;11591;44.792;10.358;2023-04-03T09:47:21;10.60;;;6.15;;
22849;SDS011;11591;44.792;10.358;2023-04-03T09:50:26;11.35;;;6.30;;
22849;SDS011;11591;44.792;10.358;2023-04-03T09:52:47;19.45;;;7.32;;
22849;SDS011;11591;44.792;10.358;2023-04-03T09:55:15;14.77;;;9.02;;
22849;SDS011;11591;44.792;10.358;2023-04-03T09:57:43;8.75;;;5.60;;
22849;SDS011;11591;44.792;10.358;2023-04-03T10:00:33;12.55;;;6.93;;
22849;SDS011;11591;44.792;10.358;2023-04-03T10:03:01;11.88;;;6.35;;
22849;SDS011;11591;44.792;10.358;2023-04-03T10:05:41;13.98;;;7.30;;
22849;SDS011;11591;44.792;10.358;2023-04-03T10:10:36;11.65;;;5.30;;
22849;SDS011;11591;44.792;10.358;2023-04-03T10:16:07;6.57;;;4.32;;
22849;SDS011;11591;44.792;10.358;2023-04-03T10:21:15;7.82;;;4.70;;
22849;SDS011;11591;44.792;10.358;2023-04-03T10:23:52;7.22;;;4.82;;
22849;SDS011;11591;44.792;10.358;2023-04-03T10:34:45;7.63;;;4.43;;
22849;SDS011;11591;44.792;10.358;2023-04-03T10:40:05;10.48;;;4.80;;
22849;SDS011;11591;44.792;10.358;2023-04-03T10:43:06;9.02;;;4.95;;
22849;SDS011;11591;44.792;10.358;2023-04-03T10:45:48;8.02;;;4.68;;
22849;SDS011;11591;44.792;10.358;2023-04-03T10:56:52;5.38;;;3.90;;
22849;SDS011;11591;44.792;10.358;2023-04-03T10:59:38;6.80;;;4.20;;
22849;SDS011;11591;44.792;10.358;2023-04-03T11:02:32;6.03;;;4.38;;
22849;SDS011;11591;44.792;10.358;2023-04-03T11:05:03;5.47;;;3.88;;
22849;SDS011;11591;44.792;10.358;2023-04-03T11:07:42;9.90;;;3.83;;
22849;SDS011;11591;44.792;10.358;2023-04-03T11:13:32;6.32;;;3.75;;
22849;SDS011;11591;44.792;10.358;2023-04-03T11:15:38;5.95;;;3.50;;
22849;SDS011;11591;44.792;10.358;2023-04-03T11:18:08;5.30;;;3.55;;
22849;SDS011;11591;44.792;10.358;2023-04-03T11:20:38;4.25;;;3.00;;
22849;SDS011;11591;44.792;10.358;2023-04-03T11:23:28;4.55;;;2.40;;
22849;SDS011;11591;44.792;10.358;2023-04-03T11:26:06;2.65;;;1.83;;
22849;SDS011;11591;44.792;10.358;2023-04-03T11:28:37;3.25;;;2.03;;
22849;SDS011;11591;44.792;10.358;2023-04-03T11:31:09;3.38;;;2.25;;
22849;SDS011;11591;44.792;10.358;2023-04-03T11:36:57;4.13;;;1.90;;
22849;SDS011;11591;44.792;10.358;2023-04-03T11:39:29;3.17;;;2.13;;
22849;SDS011;11591;44.792;10.358;2023-04-03T11:44:51;1.75;;;1.20;;
22849;SDS011;11591;44.792;10.358;2023-04-03T11:47:56;2.35;;;1.20;;
22849;SDS011;11591;44.792;10.358;2023-04-03T12:05:57;8.48;;;1.45;;
22849;SDS011;11591;44.792;10.358;2023-04-03T12:13:43;2.30;;;1.02;;
22849;SDS011;11591;44.792;10.358;2023-04-03T12:24:24;4.90;;;1.20;;
22849;SDS011;11591;44.792;10.358;2023-04-03T12:40:58;2.65;;;1.27;;
22849;SDS011;11591;44.792;10.358;2023-04-03T12:44:01;4.00;;;1.30;;
22849;SDS011;11591;44.792;10.358;2023-04-03T12:46:39;3.60;;;1.40;;
22849;SDS011;11591;44.792;10.358;2023-04-03T12:51:54;4.05;;;1.42;;
22849;SDS011;11591;44.792;10.358;2023-04-03T12:54:30;4.25;;;1.30;;
22849;SDS011;11591;44.792;10.358;2023-04-03T12:59:43;6.20;;;1.42;;
22849;SDS011;11591;44.792;10.358;2023-04-03T13:04:59;3.05;;;1.30;;
22849;SDS011;11591;44.792;10.358;2023-04-03T13:07:33;7.03;;;1.88;;
22849;SDS011;11591;44.792;10.358;2023-04-03T13:12:32;3.25;;;1.88;;
22849;SDS011;11591;44.792;10.358;2023-04-03T13:15:11;10.70;;;4.13;;
22849;SDS011;11591;44.792;10.358;2023-04-03T13:17:41;5.07;;;2.22;;
22849;SDS011;11591;44.792;10.358;2023-04-03T13:22:49;6.72;;;2.30;;
22849;SDS011;11591;44.792;10.358;2023-04-03T13:25:23;3.75;;;2.25;;
22849;SDS011;11591;44.792;10.358;2023-04-03T13:27:51;5.03;;;2.10;;
22849;SDS011;11591;44.792;10.358;2023-04-03T13:30:21;4.60;;;2.10;;
22849;SDS011;11591;44.792;10.358;2023-04-03T13:32:50;3.72;;;2.00;;
22849;SDS011;11591;44.792;10.358;2023-04-03T13:37:59;6.88;;;3.50;;
22849;SDS011;11591;44.792;10.358;2023-04-03T13:40:32;10.52;;;3.45;;
22849;SDS011;11591;44.792;10.358;2023-04-03T13:42:59;7.25;;;3.45;;
22849;SDS011;11591;44.792;10.358;2023-04-03T13:45:32;5.25;;;3.30;;
22849;SDS011;11591;44.792;10.358;2023-04-03T13:48:09;5.65;;;2.70;;
22849;SDS011;11591;44.792;10.358;2023-04-03T13:50:53;5.65;;;2.80;;
22849;SDS011;11591;44.792;10.358;2023-04-03T13:53:24;3.42;;;2.40;;
22849;SDS011;11591;44.792;10.358;2023-04-03T13:58:29;12.82;;;2.58;;
22849;SDS011;11591;44.792;10.358;2023-04-03T14:01:00;10.52;;;2.28;;
22849;SDS011;11591;44.792;10.358;2023-04-03T14:06:06;6.53;;;1.90;;
22849;SDS011;11591;44.792;10.358;2023-04-03T14:08:35;7.88;;;1.88;;
22849;SDS011;11591;44.792;10.358;2023-04-03T14:11:01;4.90;;;2.08;;
22849;SDS011;11591;44.792;10.358;2023-04-03T14:13:29;3.08;;;1.90;;
22849;SDS011;11591;44.792;10.358;2023-04-03T14:15:55;4.07;;;1.90;;
22849;SDS011;11591;44.792;10.358;2023-04-03T14:18:21;5.05;;;2.10;;
22849;SDS011;11591;44.792;10.358;2023-04-03T14:20:48;4.05;;;1.83;;
22849;SDS011;11591;44.792;10.358;2023-04-03T14:23:15;7.30;;;2.05;;
22849;SDS011;11591;44.792;10.358;2023-04-03T14:25:41;5.22;;;2.22;;
22849;SDS011;11591;44.792;10.358;2023-04-03T14:28:14;7.38;;;2.22;;
22849;SDS011;11591;44.792;10.358;2023-04-03T14:30:43;3.25;;;1.80;;
22849;SDS011;11591;44.792;10.358;2023-04-03T14:33:12;4.88;;;1.80;;
22849;SDS011;11591;44.792;10.358;2023-04-03T14:35:40;3.42;;;1.60;;
22849;SDS011;11591;44.792;10.358;2023-04-03T14:38:40;3.05;;;1.92;;
22849;SDS011;11591;44.792;10.358;2023-04-03T14:40:58;3.72;;;1.67;;
22849;SDS011;11591;44.792;10.358;2023-04-03T14:43:24;6.47;;;2.00;;
22849;SDS011;11591;44.792;10.358;2023-04-03T14:45:51;5.95;;;1.73;;
22849;SDS011;11591;44.792;10.358;2023-04-03T14:48:18;9.35;;;2.47;;
22849;SDS011;11591;44.792;10.358;2023-04-03T14:50:47;7.22;;;1.70;;
22849;SDS011;11591;44.792;10.358;2023-04-03T14:53:14;6.03;;;1.67;;
22849;SDS011;11591;44.792;10.358;2023-04-03T14:55:44;5.82;;;1.77;;
22849;SDS011;11591;44.792;10.358;2023-04-03T14:58:15;5.68;;;1.33;;
22849;SDS011;11591;44.792;10.358;2023-04-03T15:00:42;6.68;;;1.70;;
22849;SDS011;11591;44.792;10.358;2023-04-03T15:03:16;1.83;;;1.10;;
22849;SDS011;11591;44.792;10.358;2023-04-03T15:05:45;7.80;;;1.25;;
22849;SDS011;11591;44.792;10.358;2023-04-03T15:08:19;2.63;;;1.25;;
22849;SDS011;11591;44.792;10.358;2023-04-03T15:10:50;5.85;;;2.05;;
22849;SDS011;11591;44.792;10.358;2023-04-03T15:13:20;2.88;;;1.30;;
22849;SDS011;11591;44.792;10.358;2023-04-03T15:15:46;2.55;;;1.00;;
22849;SDS011;11591;44.792;10.358;2023-04-03T15:18:22;2.05;;;1.00;;
22849;SDS011;11591;44.792;10.358;2023-04-03T15:20:54;2.42;;;0.80;;
22849;SDS011;11591;44.792;10.358;2023-04-03T15:23:20;5.03;;;1.00;;
22849;SDS011;11591;44.792;10.358;2023-04-03T15:25:51;4.38;;;1.02;;
22849;SDS011;11591;44.792;10.358;2023-04-03T15:28:38;5.75;;;1.20;;
22849;SDS011;11591;44.792;10.358;2023-04-03T15:31:05;6.03;;;1.05;;
22849;SDS011;11591;44.792;10.358;2023-04-03T15:33:33;3.60;;;1.08;;
22849;SDS011;11591;44.792;10.358;2023-04-03T15:36:00;4.05;;;1.00;;
22849;SDS011;11591;44.792;10.358;2023-04-03T15:38:26;4.07;;;0.93;;
22849;SDS011;11591;44.792;10.358;2023-04-03T15:40:53;4.60;;;0.95;;
22849;SDS011;11591;44.792;10.358;2023-04-03T15:43:19;2.28;;;0.77;;
22849;SDS011;11591;44.792;10.358;2023-04-03T15:45:45;0.90;;;0.60;;
22849;SDS011;11591;44.792;10.358;2023-04-03T15:48:11;3.92;;;0.75;;
22849;SDS011;11591;44.792;10.358;2023-04-03T15:50:38;7.22;;;0.98;;
22849;SDS011;11591;44.792;10.358;2023-04-03T15:53:04;1.52;;;0.73;;
22849;SDS011;11591;44.792;10.358;2023-04-03T15:55:32;4.65;;;2.25;;
22849;SDS011;11591;44.792;10.358;2023-04-03T15:57:59;2.00;;;1.13;;
22849;SDS011;11591;44.792;10.358;2023-04-03T16:00:26;5.90;;;2.85;;
22849;SDS011;11591;44.792;10.358;2023-04-03T16:02:54;3.38;;;1.90;;
22849;SDS011;11591;44.792;10.358;2023-04-03T16:05:23;9.52;;;5.70;;
22849;SDS011;11591;44.792;10.358;2023-04-03T16:07:50;8.38;;;3.72;;
22849;SDS011;11591;44.792;10.358;2023-04-03T16:10:17;3.53;;;1.90;;
22849;SDS011;11591;44.792;10.358;2023-04-03T16:12:43;5.97;;;1.80;;
22849;SDS011;11591;44.792;10.358;2023-04-03T16:15:10;8.88;;;1.20;;
22849;SDS011;11591;44.792;10.358;2023-04-03T16:17:36;3.38;;;1.08;;
22849;SDS011;11591;44.792;10.358;2023-04-03T16:20:03;3.28;;;1.15;;
22849;SDS011;11591;44.792;10.358;2023-04-03T16:22:31;4.03;;;1.10;;
22849;SDS011;11591;44.792;10.358;2023-04-03T16:24:58;5.07;;;0.90;;
22849;SDS011;11591;44.792;10.358;2023-04-03T16:27:24;2.22;;;0.98;;
22849;SDS011;11591;44.792;10.358;2023-04-03T16:29:55;3.53;;;1.17;;
22849;SDS011;11591;44.792;10.358;2023-04-03T16:32:21;4.15;;;0.98;;
22849;SDS011;11591;44.792;10.358;2023-04-03T16:34:48;3.55;;;1.00;;
22849;SDS011;11591;44.792;10.358;2023-04-03T16:37:15;4.35;;;1.30;;
22849;SDS011;11591;44.792;10.358;2023-04-03T16:39:41;2.05;;;1.10;;
22849;SDS011;11591;44.792;10.358;2023-04-03T16:42:07;3.53;;;1.17;;
22849;SDS011;11591;44.792;10.358;2023-04-03T16:44:35;2.45;;;1.00;;
22849;SDS011;11591;44.792;10.358;2023-04-03T16:47:01;2.75;;;1.55;;
22849;SDS011;11591;44.792;10.358;2023-04-03T16:49:27;3.60;;;0.93;;